createdAt,value
2019-01-24T00:00:50.036Z,75.86
2019-01-24T00:03:19.835Z,75.73
2019-01-24T00:05:49.456Z,75.57
2019-01-24T00:08:19.028Z,75.46
2019-01-24T00:10:48.664Z,75.63
2019-01-24T00:13:18.232Z,75.71
2019-01-24T00:15:47.792Z,75.56
2019-01-24T00:18:17.366Z,75.56
2019-01-24T00:20:46.922Z,75.58
2019-01-24T00:23:16.537Z,75.28
2019-01-24T00:25:46.120Z,75.12
2019-01-24T00:28:15.675Z,75.04
2019-01-24T00:30:45.246Z,75.04
2019-01-24T00:33:14.818Z,75.07
2019-01-24T00:35:44.738Z,75.17
2019-01-24T00:38:14.285Z,75.29
2019-01-24T00:40:43.835Z,75.16
2019-01-24T00:43:14.664Z,75.12
2019-01-24T00:45:44.201Z,75.19
2019-01-24T00:48:13.772Z,75.04
2019-01-24T00:50:43.317Z,74.88
2019-01-24T00:53:12.889Z,74.94
2019-01-24T00:55:42.516Z,75.00
2019-01-24T00:58:12.089Z,74.90
2019-01-24T01:00:41.831Z,74.80
2019-01-24T01:03:11.458Z,74.61
2019-01-24T01:05:41.100Z,74.74
2019-01-24T01:08:10.651Z,74.76
2019-01-24T01:10:40.562Z,74.89
2019-01-24T01:13:10.252Z,74.79
2019-01-24T01:15:39.796Z,74.70
2019-01-24T01:18:09.503Z,74.70
2019-01-24T01:20:39.053Z,74.82
2019-01-24T01:23:08.632Z,74.80
2019-01-24T01:25:38.258Z,74.77
2019-01-24T01:28:07.902Z,74.81
2019-01-24T01:30:37.591Z,74.88
2019-01-24T01:33:07.211Z,74.91
2019-01-24T01:35:36.854Z,74.99
2019-01-24T01:38:07.311Z,74.94
2019-01-24T01:40:36.884Z,74.88
2019-01-24T01:43:06.773Z,74.94
2019-01-24T01:45:36.323Z,75.03
2019-01-24T01:48:05.964Z,74.94
2019-01-24T01:50:35.590Z,74.87
2019-01-24T01:53:05.299Z,74.84
2019-01-24T01:55:34.924Z,74.85
2019-01-24T01:58:04.619Z,74.88
2019-01-24T02:00:34.197Z,74.92
2019-01-24T02:03:03.745Z,74.85
2019-01-24T02:05:33.385Z,74.81
2019-01-24T02:08:02.935Z,74.80
2019-01-24T02:10:33.188Z,74.81
2019-01-24T02:13:02.736Z,74.71
2019-01-24T02:15:32.286Z,74.82
2019-01-24T02:18:01.931Z,74.92
2019-01-24T02:20:31.555Z,74.90
2019-01-24T02:23:01.120Z,74.86
2019-01-24T02:25:30.677Z,74.83
2019-01-24T02:28:00.260Z,74.79
2019-01-24T02:30:31.331Z,74.80
2019-01-24T02:33:01.271Z,74.83
2019-01-24T02:35:30.823Z,74.87
2019-01-24T02:38:00.381Z,74.92
2019-01-24T02:40:30.018Z,74.99
2019-01-24T02:42:59.590Z,74.99
2019-01-24T02:45:29.167Z,75.03
2019-01-24T02:47:58.828Z,75.03
2019-01-24T02:50:28.396Z,75.04
2019-01-24T02:52:57.950Z,75.02
2019-01-24T02:55:27.519Z,74.96
2019-01-24T02:57:57.075Z,74.90
2019-01-24T03:00:26.603Z,74.83
2019-01-24T03:02:56.127Z,74.86
2019-01-24T03:05:25.734Z,74.91
2019-01-24T03:07:55.254Z,74.96
2019-01-24T03:10:24.801Z,75.02
2019-01-24T03:12:54.318Z,74.82
2019-01-24T03:15:24.091Z,74.93
2019-01-24T03:17:53.714Z,74.88
2019-01-24T03:20:23.637Z,74.92
2019-01-24T03:22:53.165Z,74.96
2019-01-24T03:25:22.866Z,74.93
2019-01-24T03:27:52.406Z,75.00
2019-01-24T03:30:23.128Z,74.99
2019-01-24T03:32:52.764Z,75.04
2019-01-24T03:35:25.424Z,75.17
2019-01-24T03:37:55.186Z,75.07
2019-01-24T03:40:24.780Z,74.99
2019-01-24T03:42:54.325Z,75.01
2019-01-24T03:45:23.845Z,75.04
2019-01-24T03:47:53.365Z,75.09
2019-01-24T03:50:23.740Z,75.10
2019-01-24T03:52:53.437Z,75.10
2019-01-24T03:55:23.307Z,75.16
2019-01-24T03:57:52.835Z,75.04
2019-01-24T04:00:25.568Z,74.99
2019-01-24T04:02:55.207Z,75.07
2019-01-24T04:05:24.896Z,75.01
2019-01-24T04:07:54.519Z,75.00
2019-01-24T04:10:24.409Z,74.91
2019-01-24T04:12:53.951Z,74.89
2019-01-24T04:15:25.514Z,74.95
2019-01-24T04:17:55.435Z,75.08
2019-01-24T04:20:25.177Z,75.11
2019-01-24T04:22:54.698Z,75.14
2019-01-24T04:25:24.240Z,75.21
2019-01-24T04:27:53.776Z,75.30
2019-01-24T04:30:23.737Z,75.36
2019-01-24T04:32:53.256Z,75.41
2019-01-24T04:35:22.862Z,75.39
2019-01-24T04:37:52.391Z,75.41
2019-01-24T04:40:21.932Z,75.49
2019-01-24T04:42:52.151Z,75.49
2019-01-24T04:45:21.682Z,75.43
2019-01-24T04:47:51.231Z,75.45
2019-01-24T04:50:20.749Z,75.32
2019-01-24T04:52:50.352Z,75.31
2019-01-24T04:55:20.715Z,74.99
2019-01-24T04:57:50.472Z,75.00
2019-01-24T05:00:26.448Z,74.98
2019-01-24T05:02:55.981Z,74.91
2019-01-24T05:05:28.011Z,74.94
2019-01-24T05:07:56.845Z,75.01
2019-01-24T05:10:26.458Z,74.97
2019-01-24T05:12:55.974Z,74.89
2019-01-24T05:15:25.495Z,74.85
2019-01-24T05:17:55.055Z,74.78
2019-01-24T05:20:24.574Z,74.82
2019-01-24T05:22:54.114Z,74.80
2019-01-24T05:25:23.654Z,74.87
2019-01-24T05:27:53.198Z,74.95
2019-01-24T05:30:25.326Z,74.94
2019-01-24T05:32:55.418Z,74.94
2019-01-24T05:35:25.029Z,74.95
2019-01-24T05:37:54.572Z,74.97
2019-01-24T05:40:24.118Z,74.89
2019-01-24T05:42:53.733Z,74.79
2019-01-24T05:45:23.332Z,74.72
2019-01-24T05:47:52.858Z,74.61
2019-01-24T05:50:22.378Z,74.70
2019-01-24T05:52:51.914Z,74.55
2019-01-24T05:55:21.445Z,74.49
2019-01-24T05:57:51.091Z,74.56
2019-01-24T06:00:29.248Z,74.44
2019-01-24T06:02:58.797Z,74.53
2019-01-24T06:05:28.316Z,74.42
2019-01-24T06:07:57.845Z,74.46
2019-01-24T06:10:27.385Z,74.56
2019-01-24T06:12:56.906Z,74.67
2019-01-24T06:15:26.646Z,74.68
2019-01-24T06:17:56.167Z,74.68
2019-01-24T06:20:25.682Z,74.67
2019-01-24T06:22:55.231Z,74.71
2019-01-24T06:25:24.746Z,74.71
2019-01-24T06:27:54.475Z,74.71
2019-01-24T06:30:24.710Z,74.74
2019-01-24T06:32:54.227Z,74.63
2019-01-24T06:35:23.768Z,74.66
2019-01-24T06:37:53.294Z,74.64
2019-01-24T06:40:22.829Z,74.58
2019-01-24T06:42:52.360Z,74.52
2019-01-24T06:45:23.486Z,74.49
2019-01-24T06:47:53.030Z,74.47
2019-01-24T06:50:22.699Z,74.42
2019-01-24T06:52:52.393Z,74.41
2019-01-24T06:55:28.116Z,74.48
2019-01-24T06:57:57.635Z,74.48
2019-01-24T07:00:27.252Z,74.46
2019-01-24T07:02:56.837Z,74.48
2019-01-24T07:05:26.395Z,74.53
2019-01-24T07:07:57.822Z,74.39
2019-01-24T07:10:27.368Z,74.38
2019-01-24T07:12:56.873Z,74.48
2019-01-24T07:15:26.458Z,74.37
2019-01-24T07:17:56.083Z,74.32
2019-01-24T07:20:25.685Z,74.19
2019-01-24T07:22:55.210Z,74.26
2019-01-24T07:25:27.740Z,74.39
2019-01-24T07:27:57.352Z,74.32
2019-01-24T07:30:26.868Z,74.27
2019-01-24T07:32:56.389Z,74.29
2019-01-24T07:35:25.950Z,74.28
2019-01-24T07:37:55.471Z,74.20
2019-01-24T07:40:25.005Z,74.19
2019-01-24T07:42:54.591Z,74.14
2019-01-24T07:45:28.406Z,73.99
2019-01-24T07:47:57.942Z,74.01
2019-01-24T07:50:27.602Z,73.97
2019-01-24T07:52:57.140Z,73.97
2019-01-24T07:55:26.663Z,74.01
2019-01-24T07:57:56.261Z,74.00
2019-01-24T08:00:30.257Z,74.05
2019-01-24T08:02:59.779Z,74.09
2019-01-24T08:05:31.226Z,74.22
2019-01-24T08:08:00.748Z,74.24
2019-01-24T08:10:30.298Z,74.25
2019-01-24T08:12:59.811Z,74.32
2019-01-24T08:15:29.410Z,74.21
2019-01-24T08:17:58.949Z,74.19
2019-01-24T08:20:29.214Z,74.18
2019-01-24T08:22:58.751Z,74.11
2019-01-24T08:25:28.278Z,74.22
2019-01-24T08:27:58.140Z,74.10
2019-01-24T08:30:31.091Z,74.14
2019-01-24T08:33:00.689Z,74.11
2019-01-24T08:35:30.577Z,73.93
2019-01-24T08:38:00.100Z,73.77
2019-01-24T08:40:29.714Z,73.79
2019-01-24T08:42:59.245Z,73.67
2019-01-24T08:45:28.841Z,73.74
2019-01-24T08:47:58.376Z,73.64
2019-01-24T08:50:28.439Z,73.58
2019-01-24T08:52:57.958Z,73.33
2019-01-24T08:55:34.290Z,73.12
2019-01-24T08:58:04.385Z,73.18
2019-01-24T09:00:33.998Z,73.15
2019-01-24T09:03:03.584Z,73.23
2019-01-24T09:05:33.103Z,73.12
2019-01-24T09:08:02.721Z,73.00
2019-01-24T09:10:37.877Z,72.88
2019-01-24T09:13:07.852Z,72.85
2019-01-24T09:15:37.706Z,72.72
2019-01-24T09:18:08.618Z,72.65
2019-01-24T09:20:38.166Z,72.65
2019-01-24T09:23:07.747Z,72.63
2019-01-24T09:25:37.430Z,72.63
2019-01-24T09:28:07.114Z,72.41
2019-01-24T09:30:36.821Z,72.27
2019-01-24T09:33:06.409Z,72.27
2019-01-24T09:35:36.016Z,72.18
2019-01-24T09:38:05.913Z,72.01
2019-01-24T09:40:35.428Z,71.96
2019-01-24T09:43:05.138Z,71.83
2019-01-24T09:45:34.804Z,71.81
2019-01-24T09:48:05.353Z,71.80
2019-01-24T09:50:34.889Z,71.91
2019-01-24T09:53:04.406Z,71.90
2019-01-24T09:55:33.932Z,71.84
2019-01-24T09:58:03.522Z,71.78
2019-01-24T10:00:35.067Z,71.62
2019-01-24T10:03:05.028Z,71.68
2019-01-24T10:05:34.631Z,71.75
2019-01-24T10:08:04.667Z,71.87
2019-01-24T10:10:34.277Z,71.86
2019-01-24T10:13:03.788Z,71.89
2019-01-24T10:15:33.314Z,71.98
2019-01-24T10:18:02.861Z,72.00
2019-01-24T10:20:32.406Z,71.94
2019-01-24T10:23:01.936Z,72.01
2019-01-24T10:25:34.771Z,71.90
2019-01-24T10:28:04.661Z,71.87
2019-01-24T10:30:34.384Z,71.89
2019-01-24T10:33:04.048Z,71.95
2019-01-24T10:35:33.583Z,71.92
2019-01-24T10:38:03.173Z,71.86
2019-01-24T10:40:34.067Z,71.91
2019-01-24T10:43:03.930Z,71.97
2019-01-24T10:45:33.547Z,71.90
2019-01-24T10:48:03.220Z,71.89
2019-01-24T10:50:32.749Z,71.89
2019-01-24T10:53:02.291Z,71.89
2019-01-24T10:55:31.885Z,71.84
2019-01-24T10:58:01.965Z,71.83
2019-01-24T11:00:38.331Z,71.76
2019-01-24T11:03:10.889Z,71.65
2019-01-24T11:05:40.413Z,71.45
2019-01-24T11:08:10.211Z,71.32
2019-01-24T11:10:39.819Z,71.25
2019-01-24T11:13:09.357Z,71.30
2019-01-24T11:15:38.885Z,71.45
2019-01-24T11:18:08.556Z,71.55
2019-01-24T11:20:38.085Z,71.55
2019-01-24T11:23:07.803Z,71.56
2019-01-24T11:25:37.545Z,71.53
2019-01-24T11:28:07.170Z,71.61
2019-01-24T11:30:37.031Z,71.56
2019-01-24T11:33:08.388Z,71.49
2019-01-24T11:35:38.900Z,71.67
2019-01-24T11:38:08.665Z,71.73
2019-01-24T11:40:38.378Z,71.75
2019-01-24T11:43:07.992Z,71.73
2019-01-24T11:45:40.406Z,71.74
2019-01-24T11:48:10.120Z,71.66
2019-01-24T11:50:39.645Z,71.63
2019-01-24T11:53:09.195Z,71.74
2019-01-24T11:55:38.728Z,71.80
2019-01-24T11:58:08.628Z,71.90
2019-01-24T12:00:41.316Z,72.09
2019-01-24T12:03:10.838Z,72.21
2019-01-24T12:05:40.376Z,72.30
2019-01-24T12:08:10.245Z,72.38
2019-01-24T12:10:39.782Z,72.44
2019-01-24T12:13:09.344Z,72.56
2019-01-24T12:15:38.890Z,72.60
2019-01-24T12:18:08.536Z,72.65
2019-01-24T12:20:38.082Z,72.82
2019-01-24T12:23:07.695Z,72.99
2019-01-24T12:25:37.239Z,73.14
2019-01-24T12:28:07.011Z,73.21
2019-01-24T12:30:37.762Z,73.29
2019-01-24T12:33:07.535Z,73.39
2019-01-24T12:35:37.266Z,73.50
2019-01-24T12:38:07.034Z,73.66
2019-01-24T12:40:36.654Z,73.84
2019-01-24T12:43:06.528Z,74.00
2019-01-24T12:45:39.095Z,74.16
2019-01-24T12:48:08.788Z,74.21
2019-01-24T12:50:38.440Z,74.22
2019-01-24T12:53:08.267Z,74.33
2019-01-24T12:55:37.875Z,74.36
2019-01-24T12:58:07.566Z,74.44
2019-01-24T13:00:38.546Z,74.48
2019-01-24T13:03:08.194Z,74.57
2019-01-24T13:05:37.706Z,74.60
2019-01-24T13:08:07.311Z,74.60
2019-01-24T13:10:37.042Z,74.58
2019-01-24T13:13:06.977Z,74.56
2019-01-24T13:15:36.949Z,74.56
2019-01-24T13:18:07.137Z,74.53
2019-01-24T13:20:36.780Z,74.53
2019-01-24T13:23:06.636Z,74.59
2019-01-24T13:25:36.268Z,74.49
2019-01-24T13:28:06.239Z,74.55
2019-01-24T13:30:36.211Z,74.60
2019-01-24T13:33:06.275Z,74.63
2019-01-24T13:35:35.837Z,74.63
2019-01-24T13:38:06.166Z,74.59
2019-01-24T13:40:35.711Z,74.60
2019-01-24T13:43:05.980Z,74.58
2019-01-24T13:45:37.010Z,74.49
2019-01-24T13:48:07.079Z,74.43
2019-01-24T13:50:36.599Z,74.41
2019-01-24T13:53:06.503Z,74.48
2019-01-24T13:55:36.092Z,74.55
2019-01-24T13:58:06.093Z,74.59
2019-01-24T14:00:37.006Z,74.64
2019-01-24T14:03:14.626Z,74.65
2019-01-24T14:05:44.426Z,74.77
2019-01-24T14:08:13.966Z,74.96
2019-01-24T14:10:43.561Z,75.16
2019-01-24T14:13:13.128Z,75.25
2019-01-24T14:15:42.632Z,75.30
2019-01-24T14:18:12.179Z,75.35
2019-01-24T14:20:41.738Z,75.45
2019-01-24T14:23:11.279Z,75.54
2019-01-24T14:25:40.822Z,75.52
2019-01-24T14:28:10.543Z,75.54
2019-01-24T14:30:40.176Z,75.60
2019-01-24T14:33:09.798Z,75.63
2019-01-24T14:35:39.407Z,75.60
2019-01-24T14:38:10.013Z,75.56
2019-01-24T14:40:39.574Z,75.55
2019-01-24T14:43:09.184Z,75.63
2019-01-24T14:45:38.721Z,75.72
2019-01-24T14:48:08.598Z,75.76
2019-01-24T14:50:38.517Z,75.80
2019-01-24T14:53:08.261Z,75.86
2019-01-24T14:55:37.781Z,75.93
2019-01-24T14:58:07.578Z,76.03
2019-01-24T15:00:45.274Z,76.08
2019-01-24T15:03:14.844Z,76.17
2019-01-24T15:05:44.510Z,76.23
2019-01-24T15:08:14.898Z,76.21
2019-01-24T15:10:44.470Z,76.26
2019-01-24T15:13:14.079Z,76.37
2019-01-24T15:15:43.687Z,76.52
2019-01-24T15:18:13.364Z,76.70
2019-01-24T15:20:42.973Z,76.87
2019-01-24T15:23:12.515Z,77.02
2019-01-24T15:25:42.034Z,77.10
2019-01-24T15:28:11.720Z,77.28
2019-01-24T15:30:41.464Z,77.42
2019-01-24T15:33:11.038Z,77.50
2019-01-24T15:35:40.620Z,77.66
2019-01-24T15:38:10.315Z,77.79
2019-01-24T15:40:40.073Z,77.87
2019-01-24T15:43:09.700Z,77.93
2019-01-24T15:45:39.530Z,77.99
2019-01-24T15:48:09.481Z,78.11
2019-01-24T15:50:39.378Z,78.20
2019-01-24T15:53:11.877Z,78.27
2019-01-24T15:55:41.577Z,78.32
2019-01-24T15:58:11.285Z,78.31
2019-01-24T16:00:41.177Z,78.34
2019-01-24T16:03:10.837Z,78.37
2019-01-24T16:05:40.358Z,78.48
2019-01-24T16:08:10.051Z,78.49
2019-01-24T16:10:39.589Z,78.47
2019-01-24T16:13:09.131Z,78.46
2019-01-24T16:15:38.666Z,78.45
2019-01-24T16:18:09.597Z,78.44
2019-01-24T16:20:39.481Z,78.38
2019-01-24T16:23:09.148Z,78.34
2019-01-24T16:25:39.020Z,78.34
2019-01-24T16:28:08.548Z,78.37
2019-01-24T16:30:38.546Z,78.32
2019-01-24T16:33:09.645Z,78.22
2019-01-24T16:35:39.565Z,78.16
2019-01-24T16:38:09.837Z,78.05
2019-01-24T16:40:39.478Z,78.01
2019-01-24T16:43:08.998Z,77.99
2019-01-24T16:45:38.536Z,78.02
2019-01-24T16:48:08.476Z,77.99
2019-01-24T16:50:38.011Z,77.90
2019-01-24T16:53:07.611Z,77.85
2019-01-24T16:55:37.168Z,77.72
2019-01-24T16:58:07.352Z,77.69
2019-01-24T17:00:43.946Z,77.66
2019-01-24T17:03:13.535Z,77.60
2019-01-24T17:05:43.268Z,77.56
2019-01-24T17:08:16.763Z,77.64
2019-01-24T17:10:44.100Z,77.69
2019-01-24T17:13:13.645Z,77.75
2019-01-24T17:15:43.174Z,77.89
2019-01-24T17:18:12.714Z,77.87
2019-01-24T17:20:42.259Z,77.84
2019-01-24T17:23:11.787Z,77.81
2019-01-24T17:25:41.327Z,77.86
2019-01-24T17:28:10.839Z,77.89
2019-01-24T17:30:40.382Z,77.91
2019-01-24T17:33:09.914Z,77.94
2019-01-24T17:35:40.792Z,78.00
2019-01-24T17:38:10.437Z,78.01
2019-01-24T17:40:40.022Z,78.02
2019-01-24T17:43:09.603Z,77.99
2019-01-24T17:45:39.180Z,78.08
2019-01-24T17:48:08.982Z,78.14
2019-01-24T17:50:38.504Z,78.15
2019-01-24T17:53:08.043Z,78.07
2019-01-24T17:55:46.147Z,78.54
2019-01-24T17:58:15.857Z,78.43
2019-01-24T18:00:47.023Z,78.34
2019-01-24T18:03:16.832Z,78.21
2019-01-24T18:05:46.688Z,78.06
2019-01-24T18:08:16.438Z,77.96
2019-01-24T18:10:45.920Z,77.96
2019-01-24T18:13:15.470Z,77.98
2019-01-24T18:15:45.742Z,77.94
2019-01-24T18:18:15.915Z,77.91
2019-01-24T18:20:45.441Z,77.94
2019-01-24T18:23:15.062Z,77.95
2019-01-24T18:25:44.591Z,77.96
2019-01-24T18:28:14.366Z,77.93
2019-01-24T18:30:44.133Z,77.89
2019-01-24T18:33:13.864Z,77.84
2019-01-24T18:35:43.550Z,77.80
2019-01-24T18:38:13.155Z,77.82
2019-01-24T18:40:42.847Z,77.80
2019-01-24T18:43:16.600Z,77.76
2019-01-24T18:45:50.307Z,77.73
2019-01-24T18:48:19.997Z,77.63
2019-01-24T18:50:49.611Z,77.61
2019-01-24T18:53:19.219Z,77.62
2019-01-24T18:55:48.732Z,77.63
2019-01-24T18:58:18.258Z,77.61
2019-01-24T19:00:47.975Z,77.55
2019-01-24T19:03:17.494Z,77.44
2019-01-24T19:05:47.037Z,77.47
2019-01-24T19:08:16.702Z,77.53
2019-01-24T19:10:46.232Z,77.53
2019-01-24T19:13:15.814Z,77.59
2019-01-24T19:15:45.355Z,77.65
2019-01-24T19:18:15.212Z,77.64
2019-01-24T19:20:44.759Z,77.68
2019-01-24T19:23:14.277Z,77.68
2019-01-24T19:25:44.673Z,77.67
2019-01-24T19:28:14.190Z,77.70
2019-01-24T19:30:43.903Z,77.71
2019-01-24T19:33:13.420Z,77.69
2019-01-24T19:35:42.959Z,77.71
2019-01-24T19:38:12.487Z,77.76
2019-01-24T19:40:42.200Z,77.77
2019-01-24T19:43:11.732Z,77.83
2019-01-24T19:45:41.262Z,77.84
2019-01-24T19:48:11.056Z,77.88
2019-01-24T19:50:40.600Z,77.89
2019-01-24T19:53:10.191Z,77.85
2019-01-24T19:55:39.898Z,77.86
2019-01-24T19:58:09.691Z,77.90
2019-01-24T20:00:39.297Z,77.90
2019-01-24T20:03:09.374Z,77.92
2019-01-24T20:05:38.890Z,77.96
2019-01-24T20:08:08.650Z,77.99
2019-01-24T20:10:38.198Z,77.97
2019-01-24T20:13:07.731Z,78.00
2019-01-24T20:15:37.332Z,77.97
2019-01-24T20:18:07.760Z,78.02
2019-01-24T20:20:37.658Z,78.10
2019-01-24T20:23:07.699Z,78.05
2019-01-24T20:25:37.463Z,78.04
2019-01-24T20:28:07.004Z,78.05
2019-01-24T20:30:36.661Z,78.06
2019-01-24T20:33:06.636Z,78.04
2019-01-24T20:35:43.514Z,78.06
2019-01-24T20:38:13.395Z,78.02
2019-01-24T20:40:42.917Z,77.92
2019-01-24T20:43:14.185Z,77.96
2019-01-24T20:45:43.771Z,77.94
2019-01-24T20:48:13.548Z,77.85
2019-01-24T20:50:43.277Z,77.76
2019-01-24T20:53:12.971Z,77.67
2019-01-24T20:55:42.485Z,77.72
2019-01-24T20:58:12.029Z,77.70
2019-01-24T21:00:41.546Z,77.66
2019-01-24T21:03:11.237Z,77.66
2019-01-24T21:05:40.753Z,77.55
2019-01-24T21:08:10.302Z,77.46
2019-01-24T21:10:39.824Z,77.46
2019-01-24T21:13:09.419Z,77.52
2019-01-24T21:15:39.020Z,77.53
2019-01-24T21:18:08.613Z,77.51
2019-01-24T21:20:38.311Z,77.48
2019-01-24T21:23:08.038Z,77.46
2019-01-24T21:25:37.548Z,77.43
2019-01-24T21:28:07.186Z,77.34
2019-01-24T21:30:38.268Z,77.37
2019-01-24T21:33:08.644Z,77.55
2019-01-24T21:35:38.166Z,77.60
2019-01-24T21:38:09.349Z,77.56
2019-01-24T21:40:38.861Z,77.44
2019-01-24T21:43:08.415Z,77.28
2019-01-24T21:45:39.545Z,77.23
2019-01-24T21:48:09.438Z,77.23
2019-01-24T21:50:39.028Z,77.19
2019-01-24T21:53:08.637Z,77.17
2019-01-24T21:55:38.171Z,77.17
2019-01-24T21:58:08.245Z,77.19
2019-01-24T22:00:37.916Z,77.25
2019-01-24T22:03:07.608Z,77.26
2019-01-24T22:05:37.242Z,77.25
2019-01-24T22:08:07.237Z,77.23
2019-01-24T22:10:36.844Z,77.17
2019-01-24T22:13:06.772Z,77.22
2019-01-24T22:15:36.692Z,77.24
2019-01-24T22:18:06.661Z,77.18
2019-01-24T22:20:36.440Z,77.19
2019-01-24T22:23:06.612Z,77.19
2019-01-24T22:25:36.479Z,77.16
2019-01-24T22:28:06.810Z,77.17
2019-01-24T22:30:42.049Z,77.17
2019-01-24T22:33:11.721Z,77.13
2019-01-24T22:35:41.272Z,77.09
2019-01-24T22:38:10.821Z,77.03
2019-01-24T22:40:40.362Z,76.99
2019-01-24T22:43:10.026Z,77.07
2019-01-24T22:45:39.945Z,77.06
2019-01-24T22:48:11.010Z,77.06
2019-01-24T22:50:40.553Z,77.09
2019-01-24T22:53:10.153Z,77.00
2019-01-24T22:55:39.696Z,76.93
2019-01-24T22:58:09.389Z,76.95
2019-01-24T23:00:59.126Z,76.95
2019-01-24T23:03:44.245Z,76.93
2019-01-24T23:06:13.789Z,76.88
2019-01-24T23:08:43.314Z,76.88
2019-01-24T23:11:12.921Z,76.93
2019-01-24T23:13:42.450Z,76.99
2019-01-24T23:16:12.132Z,76.97
2019-01-24T23:18:41.659Z,76.95
2019-01-24T23:21:11.263Z,76.88
2019-01-24T23:23:40.786Z,76.92
2019-01-24T23:26:10.457Z,76.91
2019-01-24T23:28:40.378Z,76.76
2019-01-24T23:31:09.867Z,76.75
2019-01-24T23:33:39.406Z,76.80
2019-01-24T23:36:09.003Z,76.83
2019-01-24T23:38:38.538Z,76.84
2019-01-24T23:41:08.092Z,76.81
2019-01-24T23:43:37.705Z,76.83
2019-01-24T23:46:07.433Z,76.85
2019-01-24T23:48:37.040Z,76.84
2019-01-24T23:51:06.584Z,76.88
2019-01-24T23:53:36.181Z,76.91
2019-01-24T23:56:06.053Z,76.98
2019-01-24T23:58:35.576Z,76.97
